Time;durP1;ratioP1;P1;durP2;ratioP2;P2;SDS_P1;SDS_P2;PMS_P1;PMS_P2;Temp;Humidity;BMP_temperature;BMP_pressure;BME280_temperature;BME280_humidity;BME280_pressure;Samples;Min_cycle;Max_cycle;Signal;HPM_P1;HPM_P2
2023/08/09 00:00:05;;;;;;;;;;;;;;;15.45;88.97;96415.97;5106834;28;20212;-67
2023/08/09 00:02:31;;;;;;;;;;;;;;;15.42;89.80;96417.25;5104923;28;19953;-77
2023/08/09 00:04:57;;;;;;;;;;;;;;;15.39;89.25;96401.88;5106233;28;19942;-73
2023/08/09 00:07:23;;;;;;;;;;;;;;;15.36;89.87;96408.47;5106184;28;19939;-72
2023/08/09 00:09:48;;;;;;;;;;;;;;;15.33;89.46;96408.16;5106144;28;20251;-72
2023/08/09 00:12:14;;;;;;;;;;;;;;;15.30;89.63;96414.75;5106093;28;20249;-73
2023/08/09 00:14:40;;;;;;;;;;;;;;;15.30;90.35;96412.09;5106048;28;19941;-72
2023/08/09 00:17:06;;;;;;;;;;;;;;;15.30;91.18;96420.03;5105870;28;19959;-72
2023/08/09 00:19:32;;;;;;;;;;;;;;;15.29;91.27;96415.81;5105867;28;19971;-71
2023/08/09 00:21:58;;;;;;;;;;;;;;;15.27;92.21;96415.25;5105928;28;19945;-69
2023/08/09 00:24:25;;;;;;;;;;;;;;;15.27;91.32;96406.53;5105307;28;19944;-69
2023/08/09 00:26:50;;;;;;;;;;;;;;;15.27;91.02;96404.69;5105821;28;19951;-69
2023/08/09 00:29:16;;;;;;;;;;;;;;;15.28;91.00;96406.28;5105734;28;19939;-69
2023/08/09 00:31:42;;;;;;;;;;;;;;;15.29;91.46;96410.53;5106516;28;19940;-69
2023/08/09 00:34:08;;;;;;;;;;;;;;;15.29;91.19;96396.53;5105638;28;19943;-69
2023/08/09 00:36:34;;;;;;;;;;;;;;;15.30;92.22;96396.25;5106085;28;20257;-69
2023/08/09 00:39:00;;;;;;;;;;;;;;;15.28;91.62;96397.56;5105584;28;19944;-70
2023/08/09 00:41:26;;;;;;;;;;;;;;;15.27;93.53;96407.34;5105797;28;19942;-73
2023/08/09 00:43:52;;;;;;;;;;;;;;;15.25;93.72;96403.34;5105460;28;19942;-72
2023/08/09 00:46:18;;;;;;;;;;;;;;;15.24;93.26;96397.25;5105620;28;19949;-72
2023/08/09 00:48:44;;;;;;;;;;;;;;;15.23;94.79;96396.47;5105623;28;19938;-72
2023/08/09 00:51:10;;;;;;;;;;;;;;;15.23;94.98;96393.81;5105573;28;19942;-74
2023/08/09 00:53:36;;;;;;;;;;;;;;;15.22;95.41;96391.41;5105308;28;19941;-72
2023/08/09 00:56:02;;;;;;;;;;;;;;;15.20;95.44;96394.31;5105086;28;19970;-69
2023/08/09 00:58:28;;;;;;;;;;;;;;;15.21;96.26;96395.13;5105230;28;20218;-67
2023/08/09 01:00:54;;;;;;;;;;;;;;;15.20;96.05;96385.56;5105136;28;19941;-69
2023/08/09 01:03:20;;;;;;;;;;;;;;;15.19;96.57;96395.34;5103997;28;19948;-68
2023/08/09 01:05:51;;;;;;;;;;;;;;;15.19;96.47;96394.56;5105897;28;19944;-69
2023/08/09 01:08:29;;;;;;;;;;;;;;;15.17;96.63;96399.28;5105579;28;20248;-68
2023/08/09 01:10:58;;;;;;;;;;;;;;;15.15;96.30;96396.09;5104981;28;20142;-69
2023/08/09 01:13:25;;;;;;;;;;;;;;;15.14;96.98;96397.97;5104929;28;19935;-68
2023/08/09 01:15:51;;;;;;;;;;;;;;;15.12;96.73;96384.19;5104855;28;19972;-70
2023/08/09 01:18:17;;;;;;;;;;;;;;;15.11;96.33;96381.78;5104676;28;19978;-73
2023/08/09 01:20:44;;;;;;;;;;;;;;;15.10;97.28;96382.81;5104792;28;19947;-73
2023/08/09 01:23:14;;;;;;;;;;;;;;;15.10;97.89;96388.09;5103529;28;20244;-75
2023/08/09 01:25:39;;;;;;;;;;;;;;;15.08;97.54;96364.59;5104690;28;20135;-74
2023/08/09 01:28:05;;;;;;;;;;;;;;;15.07;97.32;96360.34;5104704;28;19940;-74
2023/08/09 01:30:31;;;;;;;;;;;;;;;15.07;97.10;96357.72;5104650;28;19944;-74
2023/08/09 01:32:58;;;;;;;;;;;;;;;15.05;97.76;96351.88;5104337;28;19966;-69
2023/08/09 01:35:25;;;;;;;;;;;;;;;15.04;97.51;96354.78;5104376;28;19956;-68
2023/08/09 01:37:54;;;;;;;;;;;;;;;15.05;98.12;96366.94;5104495;28;20265;-69
2023/08/09 01:40:20;;;;;;;;;;;;;;;15.03;97.97;96361.91;5104485;28;19935;-68
2023/08/09 01:42:46;;;;;;;;;;;;;;;15.01;98.39;96362.16;5104511;28;20233;-69
2023/08/09 01:45:12;;;;;;;;;;;;;;;14.99;97.99;96366.06;5104463;28;19941;-69
2023/08/09 01:47:39;;;;;;;;;;;;;;;14.99;98.76;96380.09;5104465;28;19960;-69
2023/08/09 01:50:06;;;;;;;;;;;;;;;14.97;98.38;96382.19;5104625;28;19950;-69
2023/08/09 01:52:32;;;;;;;;;;;;;;;14.97;99.00;96384.00;5104410;28;19944;-69
2023/08/09 01:54:58;;;;;;;;;;;;;;;14.95;98.37;96383.47;5104370;28;19945;-69
2023/08/09 01:57:24;;;;;;;;;;;;;;;14.94;98.85;96384.53;5104195;28;19969;-69
2023/08/09 01:59:50;;;;;;;;;;;;;;;14.93;99.49;96374.97;5104329;28;20135;-68
2023/08/09 02:02:16;;;;;;;;;;;;;;;14.92;99.43;96381.31;5104247;28;20021;-68
2023/08/09 02:04:43;;;;;;;;;;;;;;;14.92;99.90;96390.03;5104778;28;19936;-69
2023/08/09 02:07:08;;;;;;;;;;;;;;;14.91;99.88;96388.47;5105044;28;20214;-68
2023/08/09 02:09:34;;;;;;;;;;;;;;;14.92;99.84;96391.88;5104306;28;19941;-69
2023/08/09 02:12:00;;;;;;;;;;;;;;;14.91;99.71;96392.91;5105042;28;20103;-70
2023/08/09 02:14:27;;;;;;;;;;;;;;;14.91;99.58;96382.34;5104203;28;19943;-69
2023/08/09 02:16:53;;;;;;;;;;;;;;;14.89;98.86;96379.97;5104701;28;19952;-70
2023/08/09 02:19:19;;;;;;;;;;;;;;;14.89;99.58;96385.25;5104161;28;19989;-69
2023/08/09 02:21:45;;;;;;;;;;;;;;;14.89;99.37;96381.81;5104121;28;19952;-69
2023/08/09 02:24:11;;;;;;;;;;;;;;;14.87;99.35;96384.72;5104130;28;19932;-71
2023/08/09 02:26:42;;;;;;;;;;;;;;;14.88;99.17;96385.50;5102970;28;20168;-70
2023/08/09 02:29:08;;;;;;;;;;;;;;;14.87;99.00;96390.00;5104926;28;20111;-68
2023/08/09 02:31:34;;;;;;;;;;;;;;;14.86;99.16;96391.03;5104013;28;19967;-68
2023/08/09 02:34:00;;;;;;;;;;;;;;;14.85;98.97;96389.44;5104563;28;19949;-69
2023/08/09 02:36:26;;;;;;;;;;;;;;;14.84;99.66;96395.75;5103939;28;19964;-70
2023/08/09 02:38:52;;;;;;;;;;;;;;;14.84;100.00;96394.97;5103595;28;19946;-70
2023/08/09 02:41:19;;;;;;;;;;;;;;;14.83;99.84;96391.53;5103953;28;19942;-69
2023/08/09 02:43:45;;;;;;;;;;;;;;;14.82;99.84;96400.47;5103944;28;19933;-69
2023/08/09 02:46:12;;;;;;;;;;;;;;;14.81;99.24;96397.03;5103922;28;20229;-70
2023/08/09 02:48:39;;;;;;;;;;;;;;;14.82;99.51;96389.91;5107384;28;19934;-75
2023/08/09 02:51:05;;;;;;;;;;;;;;;14.81;99.56;96389.13;5107669;28;19937;-81
2023/08/09 02:53:37;;;;;;;;;;;;;;;14.81;99.34;96389.13;5107310;28;19951;-80
2023/08/09 02:56:03;;;;;;;;;;;;;;;14.81;99.34;96390.97;5107455;28;20250;-80
2023/08/09 02:58:28;;;;;;;;;;;;;;;14.80;99.69;96384.09;5107496;28;19942;-77
2023/08/09 03:00:54;;;;;;;;;;;;;;;14.79;99.60;96387.78;5108162;28;19933;-77
2023/08/09 03:03:20;;;;;;;;;;;;;;;14.78;99.72;96388.81;5107385;28;19938;-77
2023/08/09 03:05:48;;;;;;;;;;;;;;;14.77;99.00;96390.66;5107409;28;19974;-68
2023/08/09 03:08:14;;;;;;;;;;;;;;;14.77;98.63;96390.66;5107359;28;20120;-67
2023/08/09 03:10:40;;;;;;;;;;;;;;;14.78;99.02;96402.84;5107806;28;19943;-67
2023/08/09 03:13:06;;;;;;;;;;;;;;;14.78;98.56;96394.09;5107701;28;19943;-67
2023/08/09 03:15:32;;;;;;;;;;;;;;;14.76;99.49;96397.00;5107201;28;19942;-68
2023/08/09 03:17:57;;;;;;;;;;;;;;;14.76;98.84;96393.53;5106902;28;20027;-67
2023/08/09 03:20:23;;;;;;;;;;;;;;;14.75;98.96;96397.22;5107621;28;19943;-66
2023/08/09 03:22:49;;;;;;;;;;;;;;;14.74;98.79;96399.09;5107101;28;19976;-72
2023/08/09 03:25:15;;;;;;;;;;;;;;;14.74;98.66;96399.09;5105959;28;19934;-73
2023/08/09 03:27:41;;;;;;;;;;;;;;;14.76;98.23;96402.28;5106558;28;20240;-69
2023/08/09 03:30:08;;;;;;;;;;;;;;;14.76;98.64;96398.81;5106897;28;19941;-70
2023/08/09 03:32:34;;;;;;;;;;;;;;;14.75;99.03;96408.59;5106872;28;19934;-70
2023/08/09 03:35:01;;;;;;;;;;;;;;;14.75;99.23;96399.88;5106797;28;19942;-70
2023/08/09 03:37:27;;;;;;;;;;;;;;;14.74;99.44;96392.97;5106660;28;19952;-69
2023/08/09 03:39:53;;;;;;;;;;;;;;;14.74;99.89;96395.63;5106693;28;20197;-69
2023/08/09 03:42:19;;;;;;;;;;;;;;;14.73;99.68;96405.38;5106704;28;19950;-68
2023/08/09 03:44:45;;;;;;;;;;;;;;;14.73;100.00;96407.25;5106703;28;19942;-76
2023/08/09 03:47:10;;;;;;;;;;;;;;;14.72;99.60;96406.44;5106325;28;19940;-75
2023/08/09 03:49:36;;;;;;;;;;;;;;;14.72;99.70;96405.63;5105483;28;19940;-73
2023/08/09 03:52:02;;;;;;;;;;;;;;;14.72;100.00;96411.72;5107000;28;19941;-73
2023/08/09 03:54:28;;;;;;;;;;;;;;;14.70;99.96;96408.53;5106462;28;19936;-75
2023/08/09 03:56:54;;;;;;;;;;;;;;;14.69;100.00;96414.03;5105464;28;19961;-76
2023/08/09 03:59:20;;;;;;;;;;;;;;;14.67;100.00;96413.50;5105962;28;19991;-66
2023/08/09 04:01:46;;;;;;;;;;;;;;;14.67;100.00;96427.47;5106340;28;19942;-68
2023/08/09 04:04:12;;;;;;;;;;;;;;;14.66;100.00;96425.91;5106864;28;19932;-81
2023/08/09 04:06:38;;;;;;;;;;;;;;;14.66;100.00;96433.81;5106251;28;19944;-79
2023/08/09 04:09:04;;;;;;;;;;;;;;;14.65;100.00;96426.94;5106227;28;19995;-80
2023/08/09 04:11:30;;;;;;;;;;;;;;;14.65;100.00;96434.06;5106304;28;19942;-79
2023/08/09 04:13:55;;;;;;;;;;;;;;;14.65;100.00;96426.13;5106064;28;20014;-79
2023/08/09 04:16:21;;;;;;;;;;;;;;;14.63;100.00;96426.38;5105933;28;19959;-75
2023/08/09 04:18:47;;;;;;;;;;;;;;;14.61;100.00;96429.28;5105793;28;20147;-67
2023/08/09 04:21:13;;;;;;;;;;;;;;;14.60;100.00;96424.22;5105891;28;19945;-77
2023/08/09 04:23:39;;;;;;;;;;;;;;;14.58;100.00;96421.81;5105876;28;19942;-75
2023/08/09 04:26:05;;;;;;;;;;;;;;;14.57;100.00;96424.69;5105842;28;19931;-75
2023/08/09 04:28:31;;;;;;;;;;;;;;;14.56;100.00;96428.41;5105734;28;19949;-74
2023/08/09 04:30:57;;;;;;;;;;;;;;;14.55;100.00;96432.88;5106569;28;20045;-74
2023/08/09 04:33:22;;;;;;;;;;;;;;;14.56;100.00;96436.31;5104595;28;19935;-73
2023/08/09 04:35:48;;;;;;;;;;;;;;;14.55;100.00;96439.94;5106187;28;19969;-74
2023/08/09 04:38:14;;;;;;;;;;;;;;;14.54;100.00;96427.81;5105533;28;19993;-69
2023/08/09 04:40:40;;;;;;;;;;;;;;;14.55;100.00;96429.41;5106078;28;19982;-76
2023/08/09 04:43:06;;;;;;;;;;;;;;;14.55;100.00;96424.13;5105427;28;20146;-76
2023/08/09 04:45:36;;;;;;;;;;;;;;;14.55;100.00;96430.25;5105441;28;19939;-73
2023/08/09 04:48:02;;;;;;;;;;;;;;;14.55;100.00;96432.88;5106175;28;19943;-75
2023/08/09 04:50:28;;;;;;;;;;;;;;;14.55;100.00;96435.53;5104223;28;19934;-74
2023/08/09 04:52:54;;;;;;;;;;;;;;;14.54;100.00;96431.25;5105306;28;19944;-76
2023/08/09 04:55:20;;;;;;;;;;;;;;;14.54;100.00;96436.53;5105737;28;19938;-69
2023/08/09 04:57:46;;;;;;;;;;;;;;;14.55;100.00;96434.66;5105101;28;20013;-69
2023/08/09 05:00:13;;;;;;;;;;;;;;;14.55;100.00;96430.25;5105147;28;19953;-69
2023/08/09 05:02:39;;;;;;;;;;;;;;;14.55;100.00;96430.25;5105102;28;19936;-69
2023/08/09 05:05:06;;;;;;;;;;;;;;;14.56;100.00;96425.75;5105867;28;19945;-70
2023/08/09 05:07:32;;;;;;;;;;;;;;;14.55;100.00;96427.59;5105823;28;19947;-69
2023/08/09 05:09:59;;;;;;;;;;;;;;;14.57;100.00;96433.44;5105175;28;19944;-70
2023/08/09 05:12:25;;;;;;;;;;;;;;;14.58;100.00;96424.47;5105167;28;19944;-70
2023/08/09 05:14:51;;;;;;;;;;;;;;;14.60;100.00;96429.50;5104988;28;19938;-78
2023/08/09 05:17:16;;;;;;;;;;;;;;;14.60;100.00;96427.66;5104780;28;19992;-68
2023/08/09 05:19:42;;;;;;;;;;;;;;;14.60;100.00;96427.66;5104661;28;19971;-68
2023/08/09 05:22:08;;;;;;;;;;;;;;;14.62;100.00;96432.69;5105572;28;20226;-68
2023/08/09 05:24:34;;;;;;;;;;;;;;;14.63;100.00;96426.38;5105529;28;19988;-69
2023/08/09 05:27:00;;;;;;;;;;;;;;;14.64;100.00;96427.19;5104724;28;19942;-68
2023/08/09 05:29:26;;;;;;;;;;;;;;;14.62;100.00;96416.88;5104628;28;20018;-67
2023/08/09 05:31:51;;;;;;;;;;;;;;;14.63;100.00;96422.94;5105218;28;19945;-68
2023/08/09 05:34:17;;;;;;;;;;;;;;;14.64;100.00;96421.91;5104629;28;19941;-72
2023/08/09 05:36:44;;;;;;;;;;;;;;;14.65;100.00;96411.09;5104512;28;19957;-72
2023/08/09 05:39:10;;;;;;;;;;;;;;;14.66;100.00;96417.16;5104523;28;19941;-72
2023/08/09 05:41:36;;;;;;;;;;;;;;;14.67;100.00;96416.94;5104538;28;20189;-73
2023/08/09 05:44:02;;;;;;;;;;;;;;;14.70;99.84;96402.44;5104590;28;19939;-74
2023/08/09 05:46:28;;;;;;;;;;;;;;;14.71;99.07;96406.69;5104984;28;20205;-72
2023/08/09 05:48:55;;;;;;;;;;;;;;;14.74;100.00;96420.19;5104412;28;19948;-72
2023/08/09 05:51:21;;;;;;;;;;;;;;;14.79;99.88;96411.53;5104383;28;19940;-69
2023/08/09 05:53:46;;;;;;;;;;;;;;;14.81;100.00;96420.00;5105185;28;19937;-69
2023/08/09 05:56:12;;;;;;;;;;;;;;;14.81;99.64;96410.25;5104259;28;19963;-69
2023/08/09 05:58:38;;;;;;;;;;;;;;;14.82;100.00;96418.97;5104791;28;19963;-69
2023/08/09 06:01:07;;;;;;;;;;;;;;;14.84;99.64;96421.34;5103259;28;19942;-69
2023/08/09 06:03:39;;;;;;;;;;;;;;;14.85;100.00;96431.69;5104239;28;19961;-69
2023/08/09 06:06:10;;;;;;;;;;;;;;;14.85;100.00;96426.41;5104317;28;20128;-69
2023/08/09 06:08:36;;;;;;;;;;;;;;;14.86;100.00;96420.06;5104510;28;20128;-69
2023/08/09 06:11:03;;;;;;;;;;;;;;;14.89;100.00;96426.69;5104235;28;19934;-70
2023/08/09 06:13:29;;;;;;;;;;;;;;;14.90;100.00;96421.16;5104495;28;19935;-68
2023/08/09 06:15:55;;;;;;;;;;;;;;;14.93;100.00;96436.53;5103062;28;19952;-69
2023/08/09 06:18:21;;;;;;;;;;;;;;;14.98;100.00;96438.44;5103880;28;19971;-68
2023/08/09 06:20:48;;;;;;;;;;;;;;;15.00;100.00;96442.44;5104906;28;20081;-69
2023/08/09 06:23:14;;;;;;;;;;;;;;;15.01;100.00;96438.75;5107646;28;19933;-69
2023/08/09 06:25:40;;;;;;;;;;;;;;;15.06;100.00;96437.22;5108965;28;20126;-69
2023/08/09 06:28:06;;;;;;;;;;;;;;;15.08;100.00;96437.78;5108660;28;19981;-69
2023/08/09 06:30:32;;;;;;;;;;;;;;;15.12;100.00;96426.47;5107822;28;20121;-68
2023/08/09 06:32:58;;;;;;;;;;;;;;;15.16;100.00;96437.31;5108042;28;19943;-69
2023/08/09 06:35:24;;;;;;;;;;;;;;;15.20;100.00;96433.94;5107948;28;19939;-69
2023/08/09 06:37:50;;;;;;;;;;;;;;;15.22;100.00;96425.75;5107838;28;20310;-68
2023/08/09 06:40:16;;;;;;;;;;;;;;;15.28;100.00;96435.34;5107855;28;20244;-69
2023/08/09 06:42:42;;;;;;;;;;;;;;;15.33;100.00;96439.88;5108411;28;19940;-68
2023/08/09 06:45:08;;;;;;;;;;;;;;;15.38;100.00;96440.72;5107769;28;20130;-76
2023/08/09 06:47:34;;;;;;;;;;;;;;;15.43;100.00;96427.59;5106701;28;19944;-67
2023/08/09 06:50:06;;;;;;;;;;;;;;;15.49;100.00;96428.41;5107753;28;20015;-80
2023/08/09 06:52:33;;;;;;;;;;;;;;;15.53;100.00;96426.88;5108523;28;20201;-80
2023/08/09 06:55:00;;;;;;;;;;;;;;;15.59;100.00;96428.53;5107621;28;19944;-81
2023/08/09 06:57:26;;;;;;;;;;;;;;;15.65;100.00;96439.16;5107410;28;19967;-81
2023/08/09 06:59:53;;;;;;;;;;;;;;;15.68;100.00;96436.00;5107450;28;19933;-81
2023/08/09 07:02:20;;;;;;;;;;;;;;;15.70;99.52;96425.97;5107741;28;19934;-80
2023/08/09 07:04:47;;;;;;;;;;;;;;;15.74;100.00;96449.03;5107501;28;19946;-68
2023/08/09 07:07:13;;;;;;;;;;;;;;;15.78;100.00;96442.22;5107915;28;19943;-72
2023/08/09 07:09:39;;;;;;;;;;;;;;;15.84;100.00;96445.72;5107329;28;20154;-73
2023/08/09 07:12:05;;;;;;;;;;;;;;;15.88;100.00;96438.88;5107149;28;19935;-70
2023/08/09 07:14:30;;;;;;;;;;;;;;;15.92;100.00;96441.81;5107095;28;19941;-69
2023/08/09 07:16:56;;;;;;;;;;;;;;;15.94;100.00;96447.66;5107004;28;19959;-69
2023/08/09 07:19:22;;;;;;;;;;;;;;;15.94;100.00;96468.81;5106847;28;19969;-69
2023/08/09 07:21:48;;;;;;;;;;;;;;;15.92;100.00;96460.31;5107553;28;20021;-69
2023/08/09 07:24:14;;;;;;;;;;;;;;;15.89;100.00;96460.81;5106926;28;19961;-80
2023/08/09 07:26:40;;;;;;;;;;;;;;;15.89;100.00;96469.53;5106651;28;19944;-68
2023/08/09 07:29:06;;;;;;;;;;;;;;;15.89;100.00;96472.19;5106924;28;19937;-66
2023/08/09 07:31:31;;;;;;;;;;;;;;;15.92;100.00;96482.28;5107725;28;19941;-66
2023/08/09 07:33:57;;;;;;;;;;;;;;;15.94;100.00;96466.97;5105476;28;19936;-67
2023/08/09 07:36:23;;;;;;;;;;;;;;;15.99;98.69;96466.19;5106852;28;19941;-67
2023/08/09 07:38:49;;;;;;;;;;;;;;;16.02;95.78;96450.63;5107272;28;19965;-67
2023/08/09 07:41:15;;;;;;;;;;;;;;;16.08;96.28;96459.38;5106726;28;19934;-72
2023/08/09 07:43:41;;;;;;;;;;;;;;;16.12;95.11;96447.25;5106672;28;19979;-68
2023/08/09 07:46:06;;;;;;;;;;;;;;;16.17;94.83;96449.16;5106662;28;19984;-68
2023/08/09 07:48:33;;;;;;;;;;;;;;;16.21;93.97;96443.09;5107472;28;19941;-68
2023/08/09 07:50:59;;;;;;;;;;;;;;;16.26;94.83;96450.28;5105520;28;19937;-69
2023/08/09 07:53:26;;;;;;;;;;;;;;;16.34;93.40;96446.38;5107301;28;19969;-68
2023/08/09 07:55:53;;;;;;;;;;;;;;;16.46;94.70;96462.03;5106041;28;19944;-67
2023/08/09 07:58:19;;;;;;;;;;;;;;;16.59;92.76;96457.13;5106380;28;19959;-68
2023/08/09 08:00:44;;;;;;;;;;;;;;;16.70;91.36;96438.63;5106345;28;19951;-68
2023/08/09 08:03:10;;;;;;;;;;;;;;;16.79;91.50;96447.69;5106279;28;19934;-69
2023/08/09 08:05:36;;;;;;;;;;;;;;;16.90;89.93;96440.59;5106005;28;20208;-68
2023/08/09 08:08:02;;;;;;;;;;;;;;;17.00;90.00;96445.94;5107036;28;19934;-68
2023/08/09 08:10:28;;;;;;;;;;;;;;;17.08;89.98;96448.09;5105093;28;20014;-68
2023/08/09 08:12:54;;;;;;;;;;;;;;;17.16;88.78;96449.47;5106144;28;19940;-68
2023/08/09 08:15:20;;;;;;;;;;;;;;;17.25;88.64;96453.19;5105675;28;20018;-68
2023/08/09 08:17:48;;;;;;;;;;;;;;;17.36;88.14;96446.06;5106325;28;19950;-67
2023/08/09 08:20:17;;;;;;;;;;;;;;;17.47;87.34;96438.94;5106213;28;19992;-77
2023/08/09 08:22:44;;;;;;;;;;;;;;;17.60;84.67;96420.69;5106576;28;20244;-77
2023/08/09 08:25:10;;;;;;;;;;;;;;;17.75;86.02;96435.03;5105893;28;19944;-77
2023/08/09 08:27:36;;;;;;;;;;;;;;;17.93;85.29;96434.56;5105874;28;19935;-77
2023/08/09 08:30:04;;;;;;;;;;;;;;;18.07;82.02;96410.91;5106263;28;19937;-78
2023/08/09 08:32:33;;;;;;;;;;;;;;;18.17;82.21;96418.88;5106186;28;19941;-77
2023/08/09 08:35:02;;;;;;;;;;;;;;;18.30;81.70;96416.75;5083800;28;19941;-78
2023/08/09 08:37:28;;;;;;;;;;;;;;;18.39;83.04;96434.50;5083819;28;19958;-77
2023/08/09 08:39:55;;;;;;;;;;;;;;;18.43;82.12;96424.16;5083829;28;20157;-68
2023/08/09 08:42:21;;;;;;;;;;;;;;;18.45;83.08;96435.28;5066784;28;19947;-69
2023/08/09 08:44:47;;;;;;;;;;;;;;;18.41;81.61;96423.63;5083900;28;19940;-69
2023/08/09 08:47:13;;;;;;;;;;;;;;;18.36;79.96;96421.78;5083923;28;19938;-69
2023/08/09 08:49:39;;;;;;;;;;;;;;;18.32;80.24;96426.03;5083644;28;19937;-68
2023/08/09 08:52:06;;;;;;;;;;;;;;;18.31;82.07;96440.38;5083354;28;20127;-69
2023/08/09 08:54:32;;;;;;;;;;;;;;;18.26;78.96;96414.59;5083393;28;20244;-68
2023/08/09 08:56:58;;;;;;;;;;;;;;;18.25;79.69;96428.94;5066295;28;19956;-68
2023/08/09 08:59:25;;;;;;;;;;;;;;;18.28;82.62;96456.81;5083124;28;19943;-67
2023/08/09 09:01:51;;;;;;;;;;;;;;;18.32;80.72;96436.66;5083751;28;19939;-67
2023/08/09 09:04:17;;;;;;;;;;;;;;;18.40;81.37;96446.72;5083051;28;20003;-68
2023/08/09 09:06:43;;;;;;;;;;;;;;;18.43;78.60;96432.13;5100670;28;19969;-68
2023/08/09 09:09:13;;;;;;;;;;;;;;;18.47;80.68;96449.09;5105770;28;19942;-69
2023/08/09 09:11:40;;;;;;;;;;;;;;;18.51;80.17;96446.72;5105843;28;19942;-68
2023/08/09 09:14:15;;;;;;;;;;;;;;;18.51;78.86;96434.22;5104932;28;19950;-67
2023/08/09 09:16:42;;;;;;;;;;;;;;;18.52;79.01;96429.69;5104921;28;19935;-68
2023/08/09 09:19:09;;;;;;;;;;;;;;;18.54;79.92;96431.03;5104630;28;19962;-69
2023/08/09 09:21:36;;;;;;;;;;;;;;;18.58;80.94;96441.91;5104779;28;20154;-68
2023/08/09 09:24:07;;;;;;;;;;;;;;;18.62;79.54;96437.66;5105626;28;20100;-68
2023/08/09 09:26:35;;;;;;;;;;;;;;;18.60;78.65;96421.19;5103276;28;20365;-68
2023/08/09 09:29:01;;;;;;;;;;;;;;;18.61;78.98;96428.91;5105223;28;20220;-68
2023/08/09 09:31:35;;;;;;;;;;;;;;;18.64;78.78;96431.00;5105475;28;19949;-78
2023/08/09 09:34:01;;;;;;;;;;;;;;;18.70;78.73;96437.09;5104632;28;19938;-69
2023/08/09 09:36:27;;;;;;;;;;;;;;;18.77;77.93;96429.66;5104551;28;20046;-68
2023/08/09 09:38:53;;;;;;;;;;;;;;;18.81;79.18;96443.22;5104518;28;19957;-69
2023/08/09 09:41:20;;;;;;;;;;;;;;;18.86;77.64;96438.69;5104568;28;20121;-68
2023/08/09 09:43:47;;;;;;;;;;;;;;;18.87;78.19;96436.81;5104507;28;19936;-67
2023/08/09 09:46:17;;;;;;;;;;;;;;;18.86;78.18;96446.66;5103873;28;19942;-69
2023/08/09 09:48:47;;;;;;;;;;;;;;;18.83;78.06;96444.53;5104434;28;19957;-68
2023/08/09 09:51:15;;;;;;;;;;;;;;;18.76;77.27;96451.19;5103266;28;19947;-69
2023/08/09 09:53:42;;;;;;;;;;;;;;;18.73;79.02;96462.31;5104702;28;19937;-78
2023/08/09 09:56:07;;;;;;;;;;;;;;;18.73;78.68;96459.66;5104051;28;19957;-79
2023/08/09 09:58:33;;;;;;;;;;;;;;;18.74;80.67;96478.00;5103977;28;19961;-78
2023/08/09 10:01:01;;;;;;;;;;;;;;;18.71;78.68;96467.09;5104347;28;19944;-78
2023/08/09 10:03:30;;;;;;;;;;;;;;;18.70;79.07;96471.63;5104334;28;19940;-79
2023/08/09 10:05:57;;;;;;;;;;;;;;;18.72;80.10;96472.16;5104345;28;19946;-78
2023/08/09 10:08:26;;;;;;;;;;;;;;;18.76;80.36;96473.22;5104259;28;20134;-69
2023/08/09 10:10:53;;;;;;;;;;;;;;;18.81;78.92;96459.94;5103277;28;19947;-67
2023/08/09 10:13:24;;;;;;;;;;;;;;;18.88;79.54;96461.53;5104276;28;19946;-66
2023/08/09 10:15:51;;;;;;;;;;;;;;;19.01;79.90;96466.28;5104836;28;19940;-66
2023/08/09 10:18:20;;;;;;;;;;;;;;;19.13;78.42;96455.31;5103972;28;20224;-66
2023/08/09 10:20:51;;;;;;;;;;;;;;;19.27;80.37;96467.75;5104196;28;19954;-66
2023/08/09 10:23:22;;;;;;;;;;;;;;;19.42;78.87;96456.28;5104235;28;19957;-67
2023/08/09 10:25:48;;;;;;;;;;;;;;;19.56;77.13;96445.81;5104145;28;20109;-76
2023/08/09 10:28:14;;;;;;;;;;;;;;;19.62;77.44;96452.69;5104096;28;19935;-76
2023/08/09 10:30:44;;;;;;;;;;;;;;;19.70;76.61;96450.50;5102959;28;19974;-68
2023/08/09 10:33:11;;;;;;;;;;;;;;;19.74;76.02;96444.41;5103513;28;20211;-69
2023/08/09 10:35:45;;;;;;;;;;;;;;;19.79;75.80;96447.00;5104012;28;20122;-68
2023/08/09 10:38:18;;;;;;;;;;;;;;;19.86;76.52;96446.69;5103889;28;19958;-69
2023/08/09 10:40:48;;;;;;;;;;;;;;;19.93;76.23;96441.88;5104022;28;19932;-68
2023/08/09 10:43:22;;;;;;;;;;;;;;;19.97;76.71;96442.09;5103880;28;19941;-69
2023/08/09 10:45:48;;;;;;;;;;;;;;;19.98;76.39;96443.69;5104538;28;20129;-70
2023/08/09 10:48:23;;;;;;;;;;;;;;;20.04;76.22;96438.06;5103943;28;19937;-71
2023/08/09 10:51:02;;;;;;;;;;;;;;;20.11;76.38;96450.25;5103906;28;20096;-71
2023/08/09 10:53:28;;;;;;;;;;;;;;;20.08;73.00;96423.13;5103834;28;19934;-70
2023/08/09 10:55:58;;;;;;;;;;;;;;;20.11;77.00;96459.03;5104613;28;19944;-70
2023/08/09 10:58:30;;;;;;;;;;;;;;;20.12;75.21;96436.66;5103697;28;19955;-70
2023/08/09 11:00:56;;;;;;;;;;;;;;;20.13;74.52;96440.91;5103705;28;19944;-70
2023/08/09 11:03:22;;;;;;;;;;;;;;;20.16;74.57;96442.22;5104241;28;19941;-70
2023/08/09 11:05:48;;;;;;;;;;;;;;;20.19;76.11;96452.31;5103783;28;20323;-70
2023/08/09 11:08:18;;;;;;;;;;;;;;;20.20;74.14;96445.91;5104909;28;20240;-71
2023/08/09 11:10:46;;;;;;;;;;;;;;;20.18;73.45;96429.41;5108184;28;19937;-70
2023/08/09 11:13:13;;;;;;;;;;;;;;;20.25;74.51;96443.22;5107279;28;19994;-70
2023/08/09 11:15:44;;;;;;;;;;;;;;;20.32;73.44;96442.88;5107184;28;19944;-71
2023/08/09 11:18:10;;;;;;;;;;;;;;;20.35;73.08;96448.44;5107334;28;19973;-71
2023/08/09 11:20:36;;;;;;;;;;;;;;;20.40;74.04;96442.28;5107765;28;19973;-70
2023/08/09 11:23:02;;;;;;;;;;;;;;;20.45;73.18;96434.22;5107138;28;19987;-67
2023/08/09 11:25:29;;;;;;;;;;;;;;;20.49;73.42;96448.56;5107901;28;19933;-79
2023/08/09 11:27:55;;;;;;;;;;;;;;;20.55;71.97;96436.00;5107011;28;19945;-80
2023/08/09 11:30:22;;;;;;;;;;;;;;;20.55;74.12;96444.00;5106998;28;20207;-79
2023/08/09 11:33:00;;;;;;;;;;;;;;;20.58;73.13;96446.13;5106949;28;19942;-81
2023/08/09 11:35:28;;;;;;;;;;;;;;;20.63;72.09;96430.09;5106843;28;19938;-80
2023/08/09 11:37:54;;;;;;;;;;;;;;;20.73;72.78;96437.97;5106819;28;20137;-79
2023/08/09 11:40:20;;;;;;;;;;;;;;;20.78;71.21;96426.47;5107622;28;19937;-70
2023/08/09 11:42:46;;;;;;;;;;;;;;;20.88;70.57;96437.03;5105737;28;20115;-69
2023/08/09 11:45:12;;;;;;;;;;;;;;;20.85;69.55;96449.06;5106688;28;19957;-70
2023/08/09 11:47:38;;;;;;;;;;;;;;;20.91;70.67;96456.97;5106655;28;19940;-70
2023/08/09 11:50:10;;;;;;;;;;;;;;;21.03;71.30;96452.84;5106607;28;19944;-70
2023/08/09 11:52:35;;;;;;;;;;;;;;;21.22;70.80;96465.41;5107135;28;19932;-69
2023/08/09 11:55:05;;;;;;;;;;;;;;;21.29;68.64;96466.66;5106552;28;19938;-69
2023/08/09 11:57:31;;;;;;;;;;;;;;;21.27;66.41;96462.69;5106358;28;19966;-70
2023/08/09 11:59:57;;;;;;;;;;;;;;;21.31;68.28;96473.56;5106406;28;19960;-72
2023/08/09 12:02:26;;;;;;;;;;;;;;;21.35;68.83;96479.94;5106325;28;19935;-70
2023/08/09 12:04:52;;;;;;;;;;;;;;;21.36;66.50;96471.66;5107195;28;20097;-70
2023/08/09 12:07:21;;;;;;;;;;;;;;;21.37;66.41;96470.56;5106326;28;19941;-70
2023/08/09 12:09:47;;;;;;;;;;;;;;;21.35;64.94;96459.38;5106780;28;19935;-71
2023/08/09 12:12:14;;;;;;;;;;;;;;;21.37;67.16;96480.44;5106144;28;20016;-71
2023/08/09 12:14:51;;;;;;;;;;;;;;;21.41;68.10;96481.44;5106105;28;19938;-70
2023/08/09 12:17:24;;;;;;;;;;;;;;;21.43;66.37;96476.66;5106041;28;19937;-67
2023/08/09 12:19:51;;;;;;;;;;;;;;;21.49;67.79;96472.84;5105112;28;19963;-69
2023/08/09 12:22:17;;;;;;;;;;;;;;;21.43;66.56;96479.31;5104834;28;19948;-70
2023/08/09 12:24:43;;;;;;;;;;;;;;;21.38;68.62;96504.16;5105438;28;20015;-70
2023/08/09 12:27:09;;;;;;;;;;;;;;;21.29;67.87;96493.34;5105893;28;20261;-69
2023/08/09 12:29:35;;;;;;;;;;;;;;;21.13;67.42;96494.59;5106133;28;19935;-70
2023/08/09 12:32:01;;;;;;;;;;;;;;;21.05;68.69;96511.22;5106015;28;19945;-70
2023/08/09 12:34:27;;;;;;;;;;;;;;;21.02;69.25;96517.09;5105720;28;19942;-70
2023/08/09 12:36:53;;;;;;;;;;;;;;;21.07;68.87;96514.38;5106326;28;20154;-67
2023/08/09 12:39:20;;;;;;;;;;;;;;;21.24;67.47;96513.94;5106398;28;19954;-70